createdAt,value
2022-09-21T00:01:21.465Z,101601.53
2022-09-21T00:03:52.190Z,101606.81
2022-09-21T00:06:20.834Z,101613.72
2022-09-21T00:08:48.144Z,101610.53
2022-09-21T00:11:27.553Z,101612.47
2022-09-21T00:13:56.604Z,101611.38
2022-09-21T00:16:24.332Z,101599.41
2022-09-21T00:18:51.228Z,101607.97
2022-09-21T00:21:18.242Z,101613.94
2022-09-21T00:23:45.671Z,101614.22
2022-09-21T00:26:24.618Z,101615.25
2022-09-21T00:28:57.449Z,101614.66
2022-09-21T00:31:25.424Z,101610.63
2022-09-21T00:33:52.555Z,101613.00
2022-09-21T00:36:21.584Z,101616.13
2022-09-21T00:38:53.643Z,101608.03
2022-09-21T00:41:20.723Z,101613.53
2022-09-21T00:44:08.971Z,101607.25
2022-09-21T00:46:39.250Z,101615.19
2022-09-21T00:49:06.284Z,101612.56
2022-09-21T00:51:32.970Z,101608.34
2022-09-21T00:54:04.726Z,101613.50
2022-09-21T00:56:31.488Z,101621.47
2022-09-21T00:58:58.355Z,101624.34
2022-09-21T01:01:25.036Z,101619.91
2022-09-21T01:03:53.580Z,101624.41
2022-09-21T01:06:21.501Z,101630.13
2022-09-21T01:08:52.811Z,101631.44
2022-09-21T01:11:40.918Z,101635.84
2022-09-21T01:14:13.576Z,101627.16
2022-09-21T01:16:40.176Z,101632.50
2022-09-21T01:19:25.196Z,101628.88
2022-09-21T01:22:16.912Z,101628.75
2022-09-21T01:25:10.032Z,101630.84
2022-09-21T01:27:54.838Z,101631.50
2022-09-21T01:30:23.532Z,101637.63
2022-09-21T01:33:01.496Z,101638.47
2022-09-21T01:35:33.288Z,101641.34
2022-09-21T01:38:08.767Z,101644.38
2022-09-21T01:40:42.227Z,101635.84
2022-09-21T01:43:15.539Z,101635.63
2022-09-21T01:45:48.613Z,101641.78
2022-09-21T01:48:17.389Z,101641.00
2022-09-21T01:50:47.970Z,101643.66
2022-09-21T01:53:26.247Z,101637.34
2022-09-21T01:55:55.307Z,101644.25
2022-09-21T01:58:30.281Z,101640.13
2022-09-21T02:00:58.083Z,101651.38
2022-09-21T02:03:35.949Z,101638.19
2022-09-21T02:06:03.507Z,101638.94
2022-09-21T02:08:33.982Z,101647.41
2022-09-21T02:11:03.041Z,101642.94
2022-09-21T02:13:35.194Z,101643.19
2022-09-21T02:16:08.029Z,101644.13
2022-09-21T02:18:57.738Z,101643.09
2022-09-21T02:21:49.666Z,101641.34
2022-09-21T02:24:41.435Z,101643.00
2022-09-21T02:27:23.359Z,101644.53
2022-09-21T02:29:58.043Z,101645.94
2022-09-21T02:32:39.937Z,101649.44
2022-09-21T02:35:30.431Z,101635.53
2022-09-21T02:38:32.655Z,101638.81
2022-09-21T02:41:13.856Z,101645.19
2022-09-21T02:43:44.545Z,101637.19
2022-09-21T02:46:28.726Z,101637.31
2022-09-21T02:48:58.885Z,101642.22
2022-09-21T02:51:31.586Z,101637.41
2022-09-21T02:54:02.358Z,101644.09
2022-09-21T02:56:31.358Z,101644.13
2022-09-21T02:59:01.927Z,101651.47
2022-09-21T03:01:29.623Z,101656.38
2022-09-21T03:03:56.105Z,101645.88
2022-09-21T03:06:23.124Z,101652.31
2022-09-21T03:08:49.992Z,101657.28
2022-09-21T03:11:20.700Z,101656.09
2022-09-21T03:13:47.384Z,101663.19
2022-09-21T03:16:14.287Z,101667.22
2022-09-21T03:18:42.200Z,101660.72
2022-09-21T03:21:08.820Z,101664.41
2022-09-21T03:23:35.696Z,101664.91
2022-09-21T03:26:02.629Z,101665.56
2022-09-21T03:28:29.267Z,101665.13
2022-09-21T03:30:55.988Z,101655.44
2022-09-21T03:33:22.711Z,101666.00
2022-09-21T03:35:49.549Z,101664.63
2022-09-21T03:38:16.960Z,101665.66
2022-09-21T03:40:47.579Z,101661.84
2022-09-21T03:43:14.230Z,101672.84
2022-09-21T03:45:42.069Z,101672.97
2022-09-21T03:48:10.652Z,101672.19
2022-09-21T03:50:37.908Z,101675.91
2022-09-21T03:53:04.622Z,101677.38
2022-09-21T03:55:31.674Z,101682.03
2022-09-21T03:57:58.275Z,101676.28
2022-09-21T04:00:25.121Z,101676.88
2022-09-21T04:02:52.199Z,101673.56
2022-09-21T04:05:19.260Z,101678.72
2022-09-21T04:07:45.988Z,101684.91
2022-09-21T04:10:18.311Z,101683.84
2022-09-21T04:12:46.731Z,101685.66
2022-09-21T04:15:16.310Z,101690.78
2022-09-21T04:17:42.929Z,101687.34
2022-09-21T04:20:09.771Z,101692.69
2022-09-21T04:22:41.123Z,101700.59
2022-09-21T04:25:10.851Z,101696.50
2022-09-21T04:27:37.542Z,101691.22
2022-09-21T04:30:05.113Z,101694.50
2022-09-21T04:32:31.766Z,101698.19
2022-09-21T04:34:58.447Z,101699.16
2022-09-21T04:37:25.142Z,101696.94
2022-09-21T04:39:51.962Z,101696.22
2022-09-21T04:42:18.819Z,101701.91
2022-09-21T04:44:45.434Z,101698.34
2022-09-21T04:47:12.112Z,101702.03
2022-09-21T04:49:38.872Z,101698.47
2022-09-21T04:52:06.033Z,101701.72
2022-09-21T04:54:32.786Z,101699.94
2022-09-21T04:56:59.452Z,101707.28
2022-09-21T04:59:26.207Z,101694.66
2022-09-21T05:01:52.939Z,101703.53
2022-09-21T05:04:19.662Z,101702.72
2022-09-21T05:06:46.262Z,101705.25
2022-09-21T05:09:31.470Z,101708.75
2022-09-21T05:11:58.104Z,101704.72
2022-09-21T05:14:24.692Z,101707.00
2022-09-21T05:16:51.552Z,101712.41
2022-09-21T05:19:18.198Z,101711.28
2022-09-21T05:21:45.051Z,101716.78
2022-09-21T05:24:11.652Z,101721.38
2022-09-21T05:26:38.513Z,101716.09
2022-09-21T05:29:05.555Z,101726.44
2022-09-21T05:31:35.371Z,101719.31
2022-09-21T05:34:08.283Z,101720.91
2022-09-21T05:36:50.283Z,101721.94
2022-09-21T05:39:19.675Z,101729.16
2022-09-21T05:41:49.458Z,101727.31
2022-09-21T05:44:16.398Z,101722.72
2022-09-21T05:46:56.066Z,101733.00
2022-09-21T05:49:23.160Z,101729.69
2022-09-21T05:51:55.758Z,101726.03
2022-09-21T05:54:42.968Z,101732.69
2022-09-21T05:57:19.030Z,101725.56
2022-09-21T06:00:01.281Z,101729.41
2022-09-21T06:02:53.914Z,101726.19
2022-09-21T06:05:21.271Z,101734.44
2022-09-21T06:07:47.859Z,101737.63
2022-09-21T06:10:15.773Z,101730.59
2022-09-21T06:12:42.792Z,101737.78
2022-09-21T06:15:13.848Z,101738.03
2022-09-21T06:17:40.795Z,101745.22
2022-09-21T06:20:08.336Z,101749.69
2022-09-21T06:22:35.197Z,101747.66
2022-09-21T06:25:02.137Z,101750.94
2022-09-21T06:27:29.609Z,101759.59
2022-09-21T06:29:56.342Z,101754.63
2022-09-21T06:32:23.336Z,101758.13
2022-09-21T06:34:50.056Z,101762.81
2022-09-21T06:37:16.963Z,101762.22
2022-09-21T06:39:43.596Z,101759.84
2022-09-21T06:42:10.304Z,101769.84
2022-09-21T06:44:36.962Z,101766.91
2022-09-21T06:47:03.720Z,101767.66
2022-09-21T06:49:30.353Z,101767.44
2022-09-21T06:51:57.008Z,101764.34
2022-09-21T06:54:24.649Z,101767.66
2022-09-21T06:56:51.355Z,101767.72
2022-09-21T06:59:17.920Z,101784.56
2022-09-21T07:01:44.702Z,101778.56
2022-09-21T07:04:11.463Z,101775.19
2022-09-21T07:06:38.187Z,101777.38
2022-09-21T07:11:51.464Z,101775.72
2022-09-21T07:14:18.073Z,101770.94
2022-09-21T07:16:44.723Z,101777.78
2022-09-21T07:19:12.111Z,101777.72
2022-09-21T07:21:39.172Z,101779.38
2022-09-21T07:24:11.046Z,101785.00
2022-09-21T07:26:39.572Z,101790.75
2022-09-21T07:29:06.589Z,101784.88
2022-09-21T07:31:33.536Z,101793.41
2022-09-21T07:34:00.785Z,101791.84
2022-09-21T07:36:27.434Z,101788.69
2022-09-21T07:38:54.230Z,101794.78
2022-09-21T07:41:21.259Z,101792.22
2022-09-21T07:43:47.832Z,101786.66
2022-09-21T07:46:15.444Z,101792.25
2022-09-21T07:48:42.427Z,101789.31
2022-09-21T07:51:11.952Z,101789.28
2022-09-21T07:53:41.064Z,101788.44
2022-09-21T07:56:14.413Z,101789.34
2022-09-21T07:59:00.174Z,101789.25
2022-09-21T08:01:27.764Z,101793.53
2022-09-21T08:03:55.747Z,101783.69
2022-09-21T08:06:23.393Z,101785.66
2022-09-21T08:08:55.035Z,101782.03
2022-09-21T08:11:24.331Z,101793.09
2022-09-21T08:13:56.893Z,101785.59
2022-09-21T08:16:23.804Z,101784.28
2022-09-21T08:18:51.563Z,101789.50
2022-09-21T08:21:18.690Z,101786.41
2022-09-21T08:23:46.037Z,101800.44
2022-09-21T08:26:19.194Z,101791.44
2022-09-21T08:28:50.398Z,101791.25
2022-09-21T08:31:20.078Z,101798.84
2022-09-21T08:33:50.441Z,101794.97
2022-09-21T08:36:18.315Z,101789.66
2022-09-21T08:38:45.538Z,101798.91
2022-09-21T08:41:18.188Z,101798.28
2022-09-21T08:43:48.707Z,101795.59
2022-09-21T08:46:28.669Z,101799.34
2022-09-21T08:49:27.016Z,101795.03
2022-09-21T08:51:58.736Z,101796.50
2022-09-21T08:54:34.591Z,101794.06
2022-09-21T08:57:05.416Z,101804.06
2022-09-21T08:59:34.259Z,101797.91
2022-09-21T09:02:23.915Z,101792.19
2022-09-21T09:04:57.831Z,101790.34
2022-09-21T09:07:54.481Z,101800.47
2022-09-21T09:10:21.123Z,101797.94
2022-09-21T09:12:56.436Z,101799.22
2022-09-21T09:15:40.299Z,101797.81
2022-09-21T09:18:43.425Z,101797.16
2022-09-21T09:21:15.202Z,101793.88
2022-09-21T09:23:51.781Z,101796.81
2022-09-21T09:26:32.484Z,101787.91
2022-09-21T09:29:14.393Z,101792.19
2022-09-21T09:31:41.977Z,101795.31
2022-09-21T09:34:13.277Z,101791.94
2022-09-21T09:36:58.408Z,101793.75
2022-09-21T09:39:29.387Z,101793.56
2022-09-21T09:42:28.416Z,101802.56
2022-09-21T09:44:58.019Z,101794.22
2022-09-21T09:48:03.264Z,101792.50
2022-09-21T09:50:33.894Z,101796.44
2022-09-21T09:53:14.620Z,101789.59
2022-09-21T09:55:49.553Z,101784.16
2022-09-21T09:58:49.789Z,101795.84
2022-09-21T10:01:39.049Z,101784.66
2022-09-21T10:04:14.497Z,101782.72
2022-09-21T10:06:46.141Z,101789.00
2022-09-21T10:09:32.931Z,101778.88
2022-09-21T10:12:27.501Z,101782.88
2022-09-21T10:14:57.387Z,101791.25
2022-09-21T10:17:25.521Z,101780.72
2022-09-21T10:20:03.936Z,101779.91
2022-09-21T10:22:30.780Z,101779.16
2022-09-21T10:25:05.247Z,101770.75
2022-09-21T10:27:37.572Z,101778.16
2022-09-21T10:30:04.669Z,101775.63
2022-09-21T10:32:31.289Z,101782.13
2022-09-21T10:35:13.040Z,101774.41
2022-09-21T10:37:53.758Z,101776.28
2022-09-21T10:40:20.581Z,101773.63
2022-09-21T10:42:53.969Z,101770.81
2022-09-21T10:45:34.481Z,101762.38
2022-09-21T10:48:12.919Z,101768.94
2022-09-21T10:50:41.011Z,101766.66
2022-09-21T10:53:10.684Z,101765.91
2022-09-21T10:55:44.050Z,101766.00
2022-09-21T10:58:19.939Z,101765.25
2022-09-21T11:00:51.975Z,101761.34
2022-09-21T11:03:30.819Z,101752.19
2022-09-21T11:06:04.935Z,101757.75
2022-09-21T11:08:41.702Z,101759.44
2022-09-21T11:11:26.370Z,101763.50
2022-09-21T11:14:01.663Z,101761.16
2022-09-21T11:16:37.035Z,101753.41
2022-09-21T11:19:24.906Z,101754.72
2022-09-21T11:21:51.480Z,101751.66
2022-09-21T11:24:45.055Z,101749.47
2022-09-21T11:27:30.032Z,101741.06
2022-09-21T11:30:10.275Z,101734.69
2022-09-21T11:32:41.533Z,101734.22
2022-09-21T11:35:40.860Z,101738.16
2022-09-21T11:38:21.679Z,101738.41
2022-09-21T11:41:00.673Z,101745.34
2022-09-21T11:43:45.477Z,101735.13
2022-09-21T11:46:23.323Z,101733.19
2022-09-21T11:49:06.371Z,101726.97
2022-09-21T11:52:02.442Z,101733.75
2022-09-21T11:54:58.569Z,101733.03
2022-09-21T11:57:34.886Z,101740.84
2022-09-21T12:00:08.142Z,101743.13
2022-09-21T12:02:52.616Z,101736.25
2022-09-21T12:05:26.479Z,101736.66
2022-09-21T12:08:30.781Z,101732.16
2022-09-21T12:11:26.431Z,101739.69
2022-09-21T12:13:56.092Z,101721.34
2022-09-21T12:16:32.620Z,101722.00
2022-09-21T12:19:24.694Z,101722.06
2022-09-21T12:22:08.057Z,101722.97
2022-09-21T12:24:47.354Z,101714.91
2022-09-21T12:27:17.014Z,101715.16
2022-09-21T12:29:50.830Z,101717.28
2022-09-21T12:32:35.956Z,101718.06
2022-09-21T12:35:06.862Z,101710.78
2022-09-21T12:37:45.814Z,101703.59
2022-09-21T12:40:25.127Z,101712.22
2022-09-21T12:43:04.720Z,101704.72
2022-09-21T12:46:16.089Z,101704.09
2022-09-21T12:48:43.439Z,101711.09
2022-09-21T12:51:15.669Z,101711.94
2022-09-21T12:53:50.919Z,101708.03
2022-09-21T12:56:44.020Z,101701.84
2022-09-21T12:59:30.147Z,101701.56
2022-09-21T13:02:12.335Z,101702.28
2022-09-21T13:05:07.306Z,101696.66
2022-09-21T13:07:55.356Z,101694.53
2022-09-21T13:10:28.650Z,101683.78
2022-09-21T13:13:02.179Z,101678.63
2022-09-21T13:15:32.610Z,101686.75
2022-09-21T13:18:03.390Z,101682.25
2022-09-21T13:20:39.470Z,101692.34
2022-09-21T13:23:14.726Z,101693.28
2022-09-21T13:25:41.607Z,101679.38
2022-09-21T13:28:13.006Z,101673.59
2022-09-21T13:31:30.143Z,101670.91
2022-09-21T13:34:15.545Z,101675.94
2022-09-21T13:36:43.368Z,101670.38
2022-09-21T13:39:09.990Z,101672.47
2022-09-21T13:41:58.783Z,101667.53
2022-09-21T13:44:42.389Z,101665.59
2022-09-21T13:47:11.442Z,101665.53
2022-09-21T13:49:45.321Z,101666.38
2022-09-21T13:52:15.705Z,101666.72
2022-09-21T13:54:45.891Z,101657.25
2022-09-21T13:57:40.998Z,101657.69
2022-09-21T14:00:13.854Z,101664.75
2022-09-21T14:02:45.014Z,101657.47
2022-09-21T14:05:41.613Z,101650.94
2022-09-21T14:08:14.405Z,101654.06
2022-09-21T14:10:50.303Z,101652.56
2022-09-21T14:13:48.142Z,101659.38
2022-09-21T14:16:35.831Z,101660.56
2022-09-21T14:19:26.906Z,101658.16
2022-09-21T14:22:06.393Z,101658.97
2022-09-21T14:24:42.046Z,101653.56
2022-09-21T14:27:28.005Z,101653.25
2022-09-21T14:30:22.218Z,101650.09
2022-09-21T14:33:01.165Z,101653.16
2022-09-21T14:35:41.421Z,101654.38
2022-09-21T14:38:19.900Z,101643.00
2022-09-21T14:40:50.589Z,101646.97
2022-09-21T14:43:27.515Z,101645.06
2022-09-21T14:46:28.236Z,101645.53
2022-09-21T14:49:20.077Z,101641.81
2022-09-21T14:52:12.162Z,101638.06
2022-09-21T14:55:00.976Z,101639.97
2022-09-21T14:57:37.634Z,101641.63
2022-09-21T15:00:21.078Z,101644.13
2022-09-21T15:03:43.711Z,101635.31
2022-09-21T15:06:34.503Z,101632.28
2022-09-21T15:09:31.963Z,101632.06
2022-09-21T15:12:11.575Z,101628.16
2022-09-21T15:14:43.549Z,101627.25
2022-09-21T15:17:27.378Z,101624.69
2022-09-21T15:20:15.101Z,101617.19
2022-09-21T15:22:44.886Z,101625.56
2022-09-21T15:25:15.124Z,101629.81
2022-09-21T15:27:46.807Z,101623.31
2022-09-21T15:30:26.961Z,101621.47
2022-09-21T15:32:59.030Z,101628.53
2022-09-21T15:35:28.025Z,101626.19
2022-09-21T15:37:56.335Z,101623.69
2022-09-21T15:40:25.814Z,101625.75
2022-09-21T15:43:19.614Z,101627.31
2022-09-21T15:46:03.069Z,101623.53
2022-09-21T15:48:35.814Z,101617.56
2022-09-21T15:51:07.732Z,101621.63
2022-09-21T15:53:40.251Z,101615.06
2022-09-21T15:56:07.438Z,101621.88
2022-09-21T15:58:37.391Z,101615.41
2022-09-21T16:01:17.094Z,101619.44
2022-09-21T16:03:44.022Z,101618.25
2022-09-21T16:06:35.074Z,101617.31
2022-09-21T16:09:24.267Z,101617.84
2022-09-21T16:11:52.578Z,101624.03
2022-09-21T16:14:38.784Z,101620.22
2022-09-21T16:17:18.001Z,101624.56
2022-09-21T16:19:53.952Z,101622.56
2022-09-21T16:22:28.118Z,101623.84
2022-09-21T16:24:57.708Z,101616.09
2022-09-21T16:27:27.354Z,101627.38
2022-09-21T16:29:56.210Z,101620.75
2022-09-21T16:32:32.048Z,101625.81
2022-09-21T16:35:20.596Z,101629.34
2022-09-21T16:37:47.221Z,101623.78
2022-09-21T16:40:14.223Z,101628.25
2022-09-21T16:42:44.269Z,101633.16
2022-09-21T16:45:31.394Z,101628.91
2022-09-21T16:47:59.496Z,101619.16
2022-09-21T16:50:26.208Z,101625.22
2022-09-21T16:52:52.891Z,101634.25
2022-09-21T16:55:22.438Z,101627.31
2022-09-21T16:57:51.057Z,101628.88
2022-09-21T17:00:20.764Z,101630.44
2022-09-21T17:02:48.384Z,101630.09
2022-09-21T17:05:20.703Z,101632.97
2022-09-21T17:07:50.556Z,101631.81
2022-09-21T17:10:17.984Z,101635.84
2022-09-21T17:12:44.532Z,101637.50
2022-09-21T17:15:12.969Z,101637.06
2022-09-21T17:17:39.590Z,101635.66
2022-09-21T17:20:30.879Z,101646.78
2022-09-21T17:22:59.527Z,101645.78
2022-09-21T17:25:27.718Z,101639.56
2022-09-21T17:27:58.043Z,101648.53
2022-09-21T17:30:26.613Z,101636.69
2022-09-21T17:32:54.111Z,101634.19
2022-09-21T17:35:36.120Z,101642.44
2022-09-21T17:38:03.228Z,101642.03
2022-09-21T17:40:30.273Z,101643.09
2022-09-21T17:43:08.678Z,101643.78
2022-09-21T17:45:46.791Z,101639.94
2022-09-21T17:48:19.510Z,101641.59
2022-09-21T17:50:46.462Z,101637.19
2022-09-21T17:53:32.162Z,101632.91
2022-09-21T17:56:03.074Z,101641.06
2022-09-21T17:58:59.811Z,101630.47
2022-09-21T18:01:36.031Z,101640.84
2022-09-21T18:04:03.921Z,101638.59
2022-09-21T18:06:31.651Z,101642.28
2022-09-21T18:08:58.681Z,101644.72
2022-09-21T18:12:10.857Z,101647.94
2022-09-21T18:15:00.500Z,101641.19
2022-09-21T18:17:40.974Z,101640.66
2022-09-21T18:20:10.959Z,101638.25
2022-09-21T18:22:58.944Z,101640.13
2022-09-21T18:25:33.149Z,101651.16
2022-09-21T18:28:06.729Z,101656.09
2022-09-21T18:30:33.378Z,101661.75
2022-09-21T18:33:15.771Z,101663.84
2022-09-21T18:36:00.562Z,101663.41
2022-09-21T18:38:29.500Z,101664.41
2022-09-21T18:41:05.419Z,101661.47
2022-09-21T18:43:58.433Z,101667.00
2022-09-21T18:46:40.113Z,101660.16
2022-09-21T18:49:33.350Z,101659.88
2022-09-21T18:52:12.909Z,101669.91
2022-09-21T18:54:40.562Z,101666.41
2022-09-21T18:57:14.961Z,101667.06
2022-09-21T18:59:42.419Z,101676.69
2022-09-21T19:02:15.512Z,101673.06
2022-09-21T19:04:43.734Z,101677.34
2022-09-21T19:07:10.703Z,101671.41
2022-09-21T19:09:57.032Z,101668.88
2022-09-21T19:12:36.619Z,101666.41
2022-09-21T19:18:44.302Z,101667.94
2022-09-21T19:21:16.729Z,101666.66
2022-09-21T19:24:06.117Z,101661.53
2022-09-21T19:26:44.826Z,101663.22
2022-09-21T19:29:14.623Z,101667.84
2022-09-21T19:31:41.388Z,101670.75
2022-09-21T19:34:16.956Z,101671.47
2022-09-21T19:36:44.726Z,101669.00
2022-09-21T19:39:12.212Z,101660.53
2022-09-21T19:41:38.774Z,101665.25
2022-09-21T19:44:12.287Z,101667.34
2022-09-21T19:46:57.070Z,101669.00
2022-09-21T19:49:33.532Z,101673.22
2022-09-21T19:52:05.173Z,101673.72
2022-09-21T19:54:50.976Z,101674.06
2022-09-21T19:57:39.344Z,101680.72
2022-09-21T20:00:12.837Z,101676.97
2022-09-21T20:02:53.426Z,101673.31
2022-09-21T20:05:23.600Z,101669.94
2022-09-21T20:08:03.210Z,101671.41
2022-09-21T20:10:51.610Z,101674.97
2022-09-21T20:13:24.233Z,101669.31
2022-09-21T20:16:00.719Z,101677.31
2022-09-21T20:18:38.847Z,101666.44
2022-09-21T20:21:13.199Z,101674.19
2022-09-21T20:23:40.220Z,101679.44
2022-09-21T20:26:23.482Z,101673.09
2022-09-21T20:28:52.138Z,101678.59
2022-09-21T20:31:21.041Z,101680.25
2022-09-21T20:33:47.927Z,101675.91
2022-09-21T20:36:17.362Z,101675.69
2022-09-21T20:38:44.108Z,101679.81
2022-09-21T20:41:16.210Z,101672.94
2022-09-21T20:43:43.426Z,101662.66
2022-09-21T20:46:10.938Z,101664.81
2022-09-21T20:48:37.750Z,101665.44
2022-09-21T20:51:07.241Z,101666.47
2022-09-21T20:53:34.460Z,101664.25
2022-09-21T20:56:02.003Z,101667.66
2022-09-21T20:58:29.428Z,101667.47
2022-09-21T21:00:58.996Z,101665.84
2022-09-21T21:03:25.943Z,101667.75
2022-09-21T21:05:52.542Z,101676.53
2022-09-21T21:08:19.213Z,101673.25
2022-09-21T21:10:46.840Z,101664.56
2022-09-21T21:13:13.611Z,101669.53
2022-09-21T21:15:40.246Z,101667.25
2022-09-21T21:18:12.395Z,101680.50
2022-09-21T21:20:39.666Z,101670.06
2022-09-21T21:23:08.291Z,101668.88
2022-09-21T21:25:35.374Z,101669.75
2022-09-21T21:28:02.590Z,101677.72
2022-09-21T21:30:29.479Z,101673.28
2022-09-21T21:32:56.545Z,101670.66
2022-09-21T21:35:23.576Z,101679.94
2022-09-21T21:37:50.139Z,101676.38
2022-09-21T21:40:17.096Z,101686.59
2022-09-21T21:42:43.763Z,101681.75
2022-09-21T21:45:10.935Z,101678.53
2022-09-21T21:47:40.247Z,101684.69
2022-09-21T21:50:08.542Z,101673.13
2022-09-21T21:52:35.120Z,101681.59
2022-09-21T21:55:02.419Z,101676.13
2022-09-21T21:57:29.176Z,101676.03
2022-09-21T21:59:55.808Z,101679.94
2022-09-21T22:02:22.491Z,101677.97
2022-09-21T22:04:49.158Z,101678.63
2022-09-21T22:07:15.748Z,101677.09
2022-09-21T22:09:42.391Z,101677.44
2022-09-21T22:12:12.061Z,101670.16
2022-09-21T22:14:38.762Z,101670.28
2022-09-21T22:17:05.356Z,101674.50
2022-09-21T22:19:33.051Z,101673.38
2022-09-21T22:21:59.574Z,101675.78
2022-09-21T22:24:26.204Z,101674.28
2022-09-21T22:26:52.869Z,101674.56
2022-09-21T22:29:19.557Z,101686.53
2022-09-21T22:31:49.439Z,101679.88
2022-09-21T22:34:17.400Z,101677.97
2022-09-21T22:36:44.342Z,101678.78
2022-09-21T22:39:12.154Z,101677.72
2022-09-21T22:41:40.754Z,101682.63
2022-09-21T22:44:08.152Z,101675.81
2022-09-21T22:46:35.194Z,101670.59
2022-09-21T22:49:02.307Z,101678.00
2022-09-21T22:51:29.767Z,101677.53
2022-09-21T22:53:56.767Z,101673.94
2022-09-21T22:56:26.094Z,101673.03
2022-09-21T22:58:55.244Z,101678.13
2022-09-21T23:01:30.655Z,101678.88
2022-09-21T23:04:03.573Z,101673.22
2022-09-21T23:06:33.593Z,101674.38
2022-09-21T23:09:03.112Z,101663.56
2022-09-21T23:11:36.957Z,101670.13
2022-09-21T23:14:04.873Z,101666.09
2022-09-21T23:16:31.991Z,101666.03
2022-09-21T23:18:59.692Z,101661.97
2022-09-21T23:21:27.500Z,101670.00
2022-09-21T23:24:02.166Z,101653.88
2022-09-21T23:26:30.823Z,101664.75
2022-09-21T23:29:00.546Z,101657.38
2022-09-21T23:31:28.982Z,101659.22
2022-09-21T23:33:58.702Z,101657.47
2022-09-21T23:36:29.960Z,101656.16
2022-09-21T23:38:57.612Z,101662.84
2022-09-21T23:41:25.288Z,101657.34
2022-09-21T23:43:52.059Z,101653.09
2022-09-21T23:46:23.035Z,101654.84
2022-09-21T23:48:50.283Z,101653.75
2022-09-21T23:51:17.790Z,101656.75
2022-09-21T23:53:44.376Z,101651.19
2022-09-21T23:56:15.191Z,101648.72
2022-09-21T23:58:44.592Z,101647.69
